sensor_id;sensor_type;location;lat;lon;timestamp;temperature;humidity
14934;DHT22;7560;51.364;12.384;2023-04-23T00:04:24;16.70;99.90
14934;DHT22;7560;51.364;12.384;2023-04-23T00:09:29;16.70;99.90
14934;DHT22;7560;51.364;12.384;2023-04-23T00:14:32;16.60;99.90
14934;DHT22;7560;51.364;12.384;2023-04-23T00:19:34;16.60;99.90
14934;DHT22;7560;51.364;12.384;2023-04-23T00:24:39;16.60;99.90
14934;DHT22;7560;51.364;12.384;2023-04-23T00:29:43;16.60;99.90
14934;DHT22;7560;51.364;12.384;2023-04-23T00:34:46;16.60;99.90
14934;DHT22;7560;51.364;12.384;2023-04-23T00:39:49;16.50;99.90
14934;DHT22;7560;51.364;12.384;2023-04-23T00:44:51;16.50;99.90
14934;DHT22;7560;51.364;12.384;2023-04-23T00:49:53;16.50;99.90
14934;DHT22;7560;51.364;12.384;2023-04-23T00:54:56;16.50;99.90
14934;DHT22;7560;51.364;12.384;2023-04-23T00:59:58;16.50;99.90
14934;DHT22;7560;51.364;12.384;2023-04-23T01:05:03;16.50;99.90
14934;DHT22;7560;51.364;12.384;2023-04-23T01:10:06;16.50;99.90
14934;DHT22;7560;51.364;12.384;2023-04-23T01:15:08;16.40;99.90
14934;DHT22;7560;51.364;12.384;2023-04-23T01:20:10;16.30;99.90
14934;DHT22;7560;51.364;12.384;2023-04-23T01:25:13;16.20;99.90
14934;DHT22;7560;51.364;12.384;2023-04-23T01:30:15;16.20;99.90
14934;DHT22;7560;51.364;12.384;2023-04-23T01:35:17;16.20;99.90
14934;DHT22;7560;51.364;12.384;2023-04-23T01:40:19;16.20;99.90
14934;DHT22;7560;51.364;12.384;2023-04-23T01:45:21;16.20;99.90
14934;DHT22;7560;51.364;12.384;2023-04-23T01:50:24;16.10;99.90
14934;DHT22;7560;51.364;12.384;2023-04-23T01:55:26;16.00;99.90
14934;DHT22;7560;51.364;12.384;2023-04-23T02:00:28;16.00;99.90
14934;DHT22;7560;51.364;12.384;2023-04-23T02:05:33;16.00;99.90
14934;DHT22;7560;51.364;12.384;2023-04-23T02:10:35;15.90;99.90
14934;DHT22;7560;51.364;12.384;2023-04-23T02:15:37;15.90;99.90
14934;DHT22;7560;51.364;12.384;2023-04-23T02:20:39;15.90;99.90
14934;DHT22;7560;51.364;12.384;2023-04-23T02:25:41;15.90;99.90
14934;DHT22;7560;51.364;12.384;2023-04-23T02:30:43;15.90;99.90
14934;DHT22;7560;51.364;12.384;2023-04-23T02:35:48;15.90;99.90
14934;DHT22;7560;51.364;12.384;2023-04-23T02:40:50;15.80;99.90
14934;DHT22;7560;51.364;12.384;2023-04-23T02:45:52;15.70;99.90
14934;DHT22;7560;51.364;12.384;2023-04-23T02:50:54;15.80;99.90
14934;DHT22;7560;51.364;12.384;2023-04-23T02:55:56;15.80;99.90
14934;DHT22;7560;51.364;12.384;2023-04-23T03:00:58;15.80;99.90
14934;DHT22;7560;51.364;12.384;2023-04-23T03:06:01;15.80;99.90
14934;DHT22;7560;51.364;12.384;2023-04-23T03:11:03;15.80;99.90
14934;DHT22;7560;51.364;12.384;2023-04-23T03:16:05;15.90;99.90
14934;DHT22;7560;51.364;12.384;2023-04-23T03:21:06;15.80;99.90
14934;DHT22;7560;51.364;12.384;2023-04-23T03:26:08;15.80;99.90
14934;DHT22;7560;51.364;12.384;2023-04-23T03:31:10;15.80;99.90
14934;DHT22;7560;51.364;12.384;2023-04-23T03:36:12;15.80;99.90
14934;DHT22;7560;51.364;12.384;2023-04-23T03:41:14;15.70;99.90
14934;DHT22;7560;51.364;12.384;2023-04-23T03:46:16;15.80;99.90
14934;DHT22;7560;51.364;12.384;2023-04-23T03:51:18;15.80;99.90
14934;DHT22;7560;51.364;12.384;2023-04-23T03:56:25;15.70;99.90
14934;DHT22;7560;51.364;12.384;2023-04-23T04:01:28;15.70;99.90
14934;DHT22;7560;51.364;12.384;2023-04-23T04:06:30;15.70;99.90
14934;DHT22;7560;51.364;12.384;2023-04-23T04:11:32;15.60;99.90
14934;DHT22;7560;51.364;12.384;2023-04-23T04:16:33;15.60;99.90
14934;DHT22;7560;51.364;12.384;2023-04-23T04:21:35;15.50;99.90
14934;DHT22;7560;51.364;12.384;2023-04-23T04:26:37;15.50;99.90
14934;DHT22;7560;51.364;12.384;2023-04-23T04:31:40;15.50;99.90
14934;DHT22;7560;51.364;12.384;2023-04-23T04:36:42;15.50;99.90
14934;DHT22;7560;51.364;12.384;2023-04-23T04:41:45;15.50;99.90
14934;DHT22;7560;51.364;12.384;2023-04-23T04:46:50;15.50;99.90
14934;DHT22;7560;51.364;12.384;2023-04-23T04:51:53;15.50;99.90
14934;DHT22;7560;51.364;12.384;2023-04-23T04:56:55;15.50;99.90
14934;DHT22;7560;51.364;12.384;2023-04-23T05:01:57;15.50;99.90
14934;DHT22;7560;51.364;12.384;2023-04-23T05:07:03;15.50;99.90
14934;DHT22;7560;51.364;12.384;2023-04-23T05:12:04;15.50;99.90
14934;DHT22;7560;51.364;12.384;2023-04-23T05:17:07;15.50;99.90
14934;DHT22;7560;51.364;12.384;2023-04-23T05:22:10;15.50;99.90
14934;DHT22;7560;51.364;12.384;2023-04-23T05:27:14;15.50;99.90
14934;DHT22;7560;51.364;12.384;2023-04-23T05:32:16;15.40;99.90
14934;DHT22;7560;51.364;12.384;2023-04-23T05:37:18;15.40;99.90
14934;DHT22;7560;51.364;12.384;2023-04-23T05:42:20;15.40;99.90
14934;DHT22;7560;51.364;12.384;2023-04-23T05:47:25;15.40;99.90
14934;DHT22;7560;51.364;12.384;2023-04-23T05:52:27;15.60;99.90
14934;DHT22;7560;51.364;12.384;2023-04-23T05:57:32;15.80;99.90
14934;DHT22;7560;51.364;12.384;2023-04-23T06:02:34;15.80;99.90
14934;DHT22;7560;51.364;12.384;2023-04-23T06:07:38;15.80;99.90
14934;DHT22;7560;51.364;12.384;2023-04-23T06:12:42;15.80;99.90
14934;DHT22;7560;51.364;12.384;2023-04-23T06:17:45;16.00;99.90
14934;DHT22;7560;51.364;12.384;2023-04-23T06:22:47;16.10;99.90
14934;DHT22;7560;51.364;12.384;2023-04-23T06:27:50;16.00;99.90
14934;DHT22;7560;51.364;12.384;2023-04-23T06:32:53;16.10;99.90
14934;DHT22;7560;51.364;12.384;2023-04-23T06:37:55;16.10;99.90
14934;DHT22;7560;51.364;12.384;2023-04-23T06:42:58;16.20;99.90
14934;DHT22;7560;51.364;12.384;2023-04-23T06:48:01;16.20;99.90
14934;DHT22;7560;51.364;12.384;2023-04-23T06:53:04;16.30;99.90
14934;DHT22;7560;51.364;12.384;2023-04-23T06:58:09;16.50;99.90
14934;DHT22;7560;51.364;12.384;2023-04-23T07:03:13;16.50;99.90
14934;DHT22;7560;51.364;12.384;2023-04-23T07:08:15;16.80;99.90
14934;DHT22;7560;51.364;12.384;2023-04-23T07:13:17;17.00;99.90
14934;DHT22;7560;51.364;12.384;2023-04-23T07:18:20;17.10;99.90
14934;DHT22;7560;51.364;12.384;2023-04-23T07:23:34;17.00;99.90
14934;DHT22;7560;51.364;12.384;2023-04-23T07:28:37;16.80;99.90
14934;DHT22;7560;51.364;12.384;2023-04-23T07:33:40;16.20;99.90
14934;DHT22;7560;51.364;12.384;2023-04-23T07:38:47;15.90;99.90
14934;DHT22;7560;51.364;12.384;2023-04-23T07:43:50;15.60;99.90
14934;DHT22;7560;51.364;12.384;2023-04-23T07:48:52;15.90;99.90
14934;DHT22;7560;51.364;12.384;2023-04-23T07:53:55;15.90;99.90
14934;DHT22;7560;51.364;12.384;2023-04-23T07:58:59;16.10;99.90
14934;DHT22;7560;51.364;12.384;2023-04-23T08:04:03;16.20;99.90
14934;DHT22;7560;51.364;12.384;2023-04-23T08:09:05;16.30;99.90
14934;DHT22;7560;51.364;12.384;2023-04-23T08:14:10;16.20;99.90
14934;DHT22;7560;51.364;12.384;2023-04-23T08:19:11;16.10;99.90
14934;DHT22;7560;51.364;12.384;2023-04-23T08:24:13;16.10;99.90
14934;DHT22;7560;51.364;12.384;2023-04-23T08:29:17;16.30;99.90
14934;DHT22;7560;51.364;12.384;2023-04-23T08:34:22;16.40;99.90
14934;DHT22;7560;51.364;12.384;2023-04-23T08:39:24;16.70;99.90
14934;DHT22;7560;51.364;12.384;2023-04-23T08:44:29;16.90;99.90
14934;DHT22;7560;51.364;12.384;2023-04-23T08:49:33;17.00;99.90
14934;DHT22;7560;51.364;12.384;2023-04-23T08:54:36;17.20;99.90
14934;DHT22;7560;51.364;12.384;2023-04-23T08:59:42;17.70;99.90
14934;DHT22;7560;51.364;12.384;2023-04-23T09:04:47;18.10;99.90
14934;DHT22;7560;51.364;12.384;2023-04-23T09:09:57;18.30;99.90
14934;DHT22;7560;51.364;12.384;2023-04-23T09:15:02;18.60;99.90
14934;DHT22;7560;51.364;12.384;2023-04-23T09:20:13;17.60;99.90
14934;DHT22;7560;51.364;12.384;2023-04-23T09:25:17;17.60;99.90
14934;DHT22;7560;51.364;12.384;2023-04-23T09:30:19;17.60;99.90
14934;DHT22;7560;51.364;12.384;2023-04-23T09:35:26;17.90;99.90
14934;DHT22;7560;51.364;12.384;2023-04-23T09:40:39;17.60;99.90
14934;DHT22;7560;51.364;12.384;2023-04-23T09:45:49;17.60;99.90
14934;DHT22;7560;51.364;12.384;2023-04-23T09:50:54;18.00;99.90
14934;DHT22;7560;51.364;12.384;2023-04-23T09:55:56;18.60;99.90
14934;DHT22;7560;51.364;12.384;2023-04-23T10:01:08;18.60;99.90
14934;DHT22;7560;51.364;12.384;2023-04-23T10:06:14;18.30;99.90
14934;DHT22;7560;51.364;12.384;2023-04-23T10:11:36;18.50;99.90
14934;DHT22;7560;51.364;12.384;2023-04-23T10:16:42;18.10;99.90
14934;DHT22;7560;51.364;12.384;2023-04-23T10:21:59;17.80;99.90
14934;DHT22;7560;51.364;12.384;2023-04-23T10:27:21;18.10;99.90
14934;DHT22;7560;51.364;12.384;2023-04-23T10:32:47;18.30;99.90
14934;DHT22;7560;51.364;12.384;2023-04-23T10:37:53;18.30;99.90
14934;DHT22;7560;51.364;12.384;2023-04-23T10:42:58;18.40;99.90
14934;DHT22;7560;51.364;12.384;2023-04-23T10:48:03;18.70;99.90
14934;DHT22;7560;51.364;12.384;2023-04-23T10:53:20;19.10;99.90
14934;DHT22;7560;51.364;12.384;2023-04-23T10:58:23;18.60;99.90
14934;DHT22;7560;51.364;12.384;2023-04-23T11:03:36;17.90;99.90
14934;DHT22;7560;51.364;12.384;2023-04-23T11:08:52;17.70;99.90
14934;DHT22;7560;51.364;12.384;2023-04-23T11:13:55;17.90;99.90
14934;DHT22;7560;51.364;12.384;2023-04-23T11:19:08;18.20;99.90
14934;DHT22;7560;51.364;12.384;2023-04-23T11:24:14;18.00;99.90
14934;DHT22;7560;51.364;12.384;2023-04-23T11:29:17;18.00;99.90
14934;DHT22;7560;51.364;12.384;2023-04-23T11:34:23;18.10;99.90
14934;DHT22;7560;51.364;12.384;2023-04-23T11:39:28;18.10;99.90
14934;DHT22;7560;51.364;12.384;2023-04-23T11:44:30;18.00;99.90
14934;DHT22;7560;51.364;12.384;2023-04-23T11:49:37;17.90;99.90
14934;DHT22;7560;51.364;12.384;2023-04-23T11:55:11;18.00;99.90
14934;DHT22;7560;51.364;12.384;2023-04-23T12:06:00;18.40;99.90
14934;DHT22;7560;51.364;12.384;2023-04-23T12:11:07;18.50;99.90
14934;DHT22;7560;51.364;12.384;2023-04-23T12:16:14;18.80;99.90
14934;DHT22;7560;51.364;12.384;2023-04-23T12:21:16;19.00;99.90
14934;DHT22;7560;51.364;12.384;2023-04-23T12:26:22;18.90;99.90
14934;DHT22;7560;51.364;12.384;2023-04-23T12:31:27;18.60;99.90
14934;DHT22;7560;51.364;12.384;2023-04-23T12:36:32;18.60;99.90
14934;DHT22;7560;51.364;12.384;2023-04-23T12:41:52;18.30;99.90
14934;DHT22;7560;51.364;12.384;2023-04-23T12:47:05;18.30;99.90
14934;DHT22;7560;51.364;12.384;2023-04-23T12:52:32;18.30;99.90
14934;DHT22;7560;51.364;12.384;2023-04-23T12:57:34;18.40;99.90
14934;DHT22;7560;51.364;12.384;2023-04-23T13:02:42;18.80;99.90
14934;DHT22;7560;51.364;12.384;2023-04-23T13:07:49;19.10;99.90
14934;DHT22;7560;51.364;12.384;2023-04-23T13:13:30;19.40;99.90
14934;DHT22;7560;51.364;12.384;2023-04-23T13:18:51;20.00;99.90
14934;DHT22;7560;51.364;12.384;2023-04-23T13:30:17;20.50;99.90
14934;DHT22;7560;51.364;12.384;2023-04-23T13:42:07;21.30;99.90
14934;DHT22;7560;51.364;12.384;2023-04-23T13:47:10;21.70;99.90
14934;DHT22;7560;51.364;12.384;2023-04-23T13:52:12;21.30;99.90
14934;DHT22;7560;51.364;12.384;2023-04-23T13:57:14;20.60;99.90
14934;DHT22;7560;51.364;12.384;2023-04-23T14:02:16;20.80;99.90
14934;DHT22;7560;51.364;12.384;2023-04-23T14:07:17;20.40;99.90
14934;DHT22;7560;51.364;12.384;2023-04-23T14:12:19;21.40;99.90
14934;DHT22;7560;51.364;12.384;2023-04-23T14:17:24;21.40;99.90
14934;DHT22;7560;51.364;12.384;2023-04-23T14:22:27;22.00;99.60
14934;DHT22;7560;51.364;12.384;2023-04-23T14:27:39;22.80;98.00
14934;DHT22;7560;51.364;12.384;2023-04-23T14:32:41;22.10;97.40
14934;DHT22;7560;51.364;12.384;2023-04-23T14:37:44;21.90;98.30
14934;DHT22;7560;51.364;12.384;2023-04-23T14:42:49;22.40;97.20
14934;DHT22;7560;51.364;12.384;2023-04-23T14:47:54;22.30;97.80
14934;DHT22;7560;51.364;12.384;2023-04-23T14:52:57;22.60;97.70
14934;DHT22;7560;51.364;12.384;2023-04-23T14:57:59;23.90;95.40
14934;DHT22;7560;51.364;12.384;2023-04-23T15:03:01;24.10;94.60
14934;DHT22;7560;51.364;12.384;2023-04-23T15:08:07;24.60;94.00
14934;DHT22;7560;51.364;12.384;2023-04-23T15:18:14;24.40;93.00
14934;DHT22;7560;51.364;12.384;2023-04-23T15:23:16;23.90;93.30
14934;DHT22;7560;51.364;12.384;2023-04-23T15:28:21;23.10;94.00
14934;DHT22;7560;51.364;12.384;2023-04-23T15:33:24;23.10;94.30
14934;DHT22;7560;51.364;12.384;2023-04-23T15:38:26;23.60;93.20
14934;DHT22;7560;51.364;12.384;2023-04-23T15:43:28;24.20;92.60
14934;DHT22;7560;51.364;12.384;2023-04-23T15:48:30;24.40;92.00
14934;DHT22;7560;51.364;12.384;2023-04-23T15:53:31;24.00;92.20
14934;DHT22;7560;51.364;12.384;2023-04-23T15:58:33;23.40;92.60
14934;DHT22;7560;51.364;12.384;2023-04-23T16:03:35;23.00;92.80
14934;DHT22;7560;51.364;12.384;2023-04-23T16:08:37;23.30;92.60
14934;DHT22;7560;51.364;12.384;2023-04-23T16:13:40;23.80;92.50
14934;DHT22;7560;51.364;12.384;2023-04-23T16:18:44;23.60;92.60
14934;DHT22;7560;51.364;12.384;2023-04-23T16:23:46;23.90;93.20
14934;DHT22;7560;51.364;12.384;2023-04-23T16:28:48;24.10;92.80
14934;DHT22;7560;51.364;12.384;2023-04-23T16:34:01;24.70;92.70
14934;DHT22;7560;51.364;12.384;2023-04-23T16:39:03;24.00;93.30
14934;DHT22;7560;51.364;12.384;2023-04-23T16:44:05;23.50;93.50
14934;DHT22;7560;51.364;12.384;2023-04-23T16:49:07;23.10;93.70
14934;DHT22;7560;51.364;12.384;2023-04-23T16:54:08;22.60;93.90
14934;DHT22;7560;51.364;12.384;2023-04-23T16:59:11;22.60;94.70
14934;DHT22;7560;51.364;12.384;2023-04-23T17:04:13;22.40;95.30
14934;DHT22;7560;51.364;12.384;2023-04-23T17:09:17;22.20;95.20
14934;DHT22;7560;51.364;12.384;2023-04-23T17:14:19;22.00;95.20
14934;DHT22;7560;51.364;12.384;2023-04-23T17:19:23;21.70;95.80
14934;DHT22;7560;51.364;12.384;2023-04-23T17:24:25;21.60;96.00
14934;DHT22;7560;51.364;12.384;2023-04-23T17:29:27;21.60;96.20
14934;DHT22;7560;51.364;12.384;2023-04-23T17:34:28;21.30;96.30
14934;DHT22;7560;51.364;12.384;2023-04-23T17:39:30;21.00;96.90
14934;DHT22;7560;51.364;12.384;2023-04-23T17:44:32;20.80;97.50
14934;DHT22;7560;51.364;12.384;2023-04-23T17:49:35;20.40;98.00
14934;DHT22;7560;51.364;12.384;2023-04-23T17:54:37;20.00;98.50
14934;DHT22;7560;51.364;12.384;2023-04-23T17:59:39;19.80;99.20
14934;DHT22;7560;51.364;12.384;2023-04-23T18:04:41;19.70;99.40
14934;DHT22;7560;51.364;12.384;2023-04-23T18:09:43;19.30;99.90
14934;DHT22;7560;51.364;12.384;2023-04-23T18:14:44;19.00;99.90
14934;DHT22;7560;51.364;12.384;2023-04-23T18:19:46;18.90;99.90
14934;DHT22;7560;51.364;12.384;2023-04-23T18:24:49;18.70;99.90
14934;DHT22;7560;51.364;12.384;2023-04-23T18:29:51;18.40;99.90
14934;DHT22;7560;51.364;12.384;2023-04-23T18:34:54;18.20;99.90
14934;DHT22;7560;51.364;12.384;2023-04-23T18:39:57;18.00;99.90
14934;DHT22;7560;51.364;12.384;2023-04-23T18:44:59;17.90;99.90
14934;DHT22;7560;51.364;12.384;2023-04-23T18:50:03;17.70;99.90
14934;DHT22;7560;51.364;12.384;2023-04-23T18:55:08;17.60;99.90
14934;DHT22;7560;51.364;12.384;2023-04-23T19:00:10;17.50;99.90
14934;DHT22;7560;51.364;12.384;2023-04-23T19:05:12;17.40;99.90
14934;DHT22;7560;51.364;12.384;2023-04-23T19:10:15;17.30;99.90
14934;DHT22;7560;51.364;12.384;2023-04-23T19:15:17;17.10;99.90
14934;DHT22;7560;51.364;12.384;2023-04-23T19:20:20;17.00;99.90
14934;DHT22;7560;51.364;12.384;2023-04-23T19:25:22;16.90;99.90
14934;DHT22;7560;51.364;12.384;2023-04-23T19:30:24;16.80;99.90
14934;DHT22;7560;51.364;12.384;2023-04-23T19:35:26;16.80;99.90
14934;DHT22;7560;51.364;12.384;2023-04-23T19:40:28;16.70;99.90
14934;DHT22;7560;51.364;12.384;2023-04-23T19:45:34;16.70;99.90
14934;DHT22;7560;51.364;12.384;2023-04-23T19:50:36;16.60;99.90
14934;DHT22;7560;51.364;12.384;2023-04-23T19:55:38;16.60;99.90
14934;DHT22;7560;51.364;12.384;2023-04-23T20:00:41;16.50;99.90
14934;DHT22;7560;51.364;12.384;2023-04-23T20:05:44;16.40;99.90
14934;DHT22;7560;51.364;12.384;2023-04-23T20:10:46;16.40;99.90
14934;DHT22;7560;51.364;12.384;2023-04-23T20:15:52;16.20;99.90
14934;DHT22;7560;51.364;12.384;2023-04-23T20:20:54;16.20;99.90
14934;DHT22;7560;51.364;12.384;2023-04-23T20:25:56;16.00;99.90
14934;DHT22;7560;51.364;12.384;2023-04-23T20:30:58;16.00;99.90
14934;DHT22;7560;51.364;12.384;2023-04-23T20:36:00;15.90;99.90
14934;DHT22;7560;51.364;12.384;2023-04-23T20:41:02;15.80;99.90
14934;DHT22;7560;51.364;12.384;2023-04-23T20:46:05;15.70;99.90
14934;DHT22;7560;51.364;12.384;2023-04-23T20:51:11;15.70;99.90
14934;DHT22;7560;51.364;12.384;2023-04-23T20:56:16;15.60;99.90
14934;DHT22;7560;51.364;12.384;2023-04-23T21:01:18;15.50;99.90
14934;DHT22;7560;51.364;12.384;2023-04-23T21:06:23;15.50;99.90
14934;DHT22;7560;51.364;12.384;2023-04-23T21:11:28;15.30;99.90
14934;DHT22;7560;51.364;12.384;2023-04-23T21:16:30;15.20;99.90
14934;DHT22;7560;51.364;12.384;2023-04-23T21:21:32;15.10;99.90
14934;DHT22;7560;51.364;12.384;2023-04-23T21:26:33;15.00;99.90
14934;DHT22;7560;51.364;12.384;2023-04-23T21:31:45;15.00;99.90
14934;DHT22;7560;51.364;12.384;2023-04-23T21:36:48;14.80;99.90
14934;DHT22;7560;51.364;12.384;2023-04-23T21:41:49;14.80;99.90
14934;DHT22;7560;51.364;12.384;2023-04-23T21:46:51;14.80;99.90
14934;DHT22;7560;51.364;12.384;2023-04-23T21:51:53;14.70;99.90
14934;DHT22;7560;51.364;12.384;2023-04-23T21:56:56;14.60;99.90
14934;DHT22;7560;51.364;12.384;2023-04-23T22:01:58;14.60;99.90
14934;DHT22;7560;51.364;12.384;2023-04-23T22:07:00;14.60;99.90
14934;DHT22;7560;51.364;12.384;2023-04-23T22:12:06;14.60;99.90
14934;DHT22;7560;51.364;12.384;2023-04-23T22:17:08;14.60;99.90
14934;DHT22;7560;51.364;12.384;2023-04-23T22:22:10;14.70;99.90
14934;DHT22;7560;51.364;12.384;2023-04-23T22:27:12;14.70;99.90
14934;DHT22;7560;51.364;12.384;2023-04-23T22:32:14;14.70;99.90
14934;DHT22;7560;51.364;12.384;2023-04-23T22:37:16;14.70;99.90
14934;DHT22;7560;51.364;12.384;2023-04-23T22:42:17;14.90;99.90
14934;DHT22;7560;51.364;12.384;2023-04-23T22:47:19;14.90;99.90
14934;DHT22;7560;51.364;12.384;2023-04-23T22:52:21;15.00;99.90
14934;DHT22;7560;51.364;12.384;2023-04-23T22:57:23;15.10;99.90
14934;DHT22;7560;51.364;12.384;2023-04-23T23:02:25;15.20;99.90
14934;DHT22;7560;51.364;12.384;2023-04-23T23:07:27;15.20;99.90
14934;DHT22;7560;51.364;12.384;2023-04-23T23:12:30;15.10;99.90
14934;DHT22;7560;51.364;12.384;2023-04-23T23:17:32;15.10;99.90
14934;DHT22;7560;51.364;12.384;2023-04-23T23:22:34;15.10;99.90
14934;DHT22;7560;51.364;12.384;2023-04-23T23:27:36;15.00;99.90
14934;DHT22;7560;51.364;12.384;2023-04-23T23:32:38;15.00;99.90
14934;DHT22;7560;51.364;12.384;2023-04-23T23:37:40;15.00;99.90
14934;DHT22;7560;51.364;12.384;2023-04-23T23:42:41;14.90;99.90
14934;DHT22;7560;51.364;12.384;2023-04-23T23:47:43;14.90;99.90
14934;DHT22;7560;51.364;12.384;2023-04-23T23:52:46;14.90;99.90
14934;DHT22;7560;51.364;12.384;2023-04-23T23:57:47;14.90;99.90
